Stations météo

Publicité
Sutton bonington, Grande-Bretagne (99025): Température de l'air & dewpoint: 21.10.2020 17:00:00 - 27.10.2020 17:00:00 (GMT)Sutton bonington, Grande-Bretagne (99025): Température de l'air -20cm & Température de l'air -100cm: 21.10.2020 17:00:00 - 27.10.2020 17:00:00 (GMT)Sutton bonington, Grande-Bretagne (99025): Vitesse du vent & gusts: 21.10.2020 17:00:00 - 27.10.2020 17:00:00 (GMT)Sutton bonington, Grande-Bretagne (99025): Direction du vent: 21.10.2020 17:00:00 - 27.10.2020 17:00:00 (GMT)Sutton bonington, Grande-Bretagne (99025): Quantités de précipitations: 21.10.2020 17:00:00 - 27.10.2020 17:00:00 (GMT)
Date & Time tt [°C] td [°C] tt -20cm [°C] tt -100cm [°C] ff [km/h] ff [knt] fx [km/h] fx [knt] dd rr [mm]
27.10.2020 17:00:00 - - - - - - - - - 0,0
27.10.2020 16:00:00 12,3 9,0 - - 21 11 48 26 WSW 0,4
27.10.2020 15:00:00 12,3 11,8 - - 16 9 - - SSW 0,6
27.10.2020 14:00:00 11,4 10,9 - - 15 8 - - S 0,4
27.10.2020 13:00:00 10,5 9,9 - - 16 9 - - SSE 0,4
27.10.2020 12:00:00 10,0 9,3 - - 18 10 - - SSE 0,2
27.10.2020 11:00:00 9,0 8,6 - - 18 10 - - SSE 0,2
27.10.2020 10:00:00 8,4 7,6 - - 15 8 - - SSE 0,2
27.10.2020 09:00:00 8,8 7,0 9,7 11,9 16 9 - - S 0,0
27.10.2020 08:00:00 8,4 7,0 - - 15 8 - - S 0,0
27.10.2020 07:00:00 7,8 6,0 - - 13 7 - - S 0,0
27.10.2020 06:00:00 7,7 5,7 - - 11 6 - - SSW 0,0
27.10.2020 05:00:00 7,2 5,6 - - 11 6 - - SSW 0,0
27.10.2020 04:00:00 6,9 5,4 - - 13 7 - - SW 0,0
27.10.2020 03:00:00 6,8 5,4 - - 11 6 - - SW 0,0
27.10.2020 02:00:00 7,1 5,7 - - 13 7 - - SW 0,0
27.10.2020 01:00:00 7,2 5,6 - - 13 7 - - SW 0,0
27.10.2020 00:00:00 7,3 5,5 - - 13 7 - - SW 0,0
26.10.2020 23:00:00 7,9 5,8 - - 11 6 - - SW 0,0
26.10.2020 22:00:00 8,4 5,7 - - 11 6 - - SW 0,0
26.10.2020 21:00:00 8,2 5,8 - - 9 5 - - SW 0,0
26.10.2020 20:00:00 8,7 6,0 - - 11 6 - - SW 0,0
26.10.2020 19:00:00 9,0 6,1 - - 13 7 - - SW 0,0
26.10.2020 18:00:00 8,9 6,2 - - 9 5 - - SW 0,0
26.10.2020 17:00:00 9,9 6,2 - - 11 6 - - WSW 0,0
26.10.2020 16:00:00 10,4 7,2 - - 11 6 - - W 0,6
26.10.2020 15:00:00 9,9 5,9 - - 21 11 - - W 2,0
26.10.2020 14:00:00 12,1 6,5 - - 16 9 - - W 0,0
26.10.2020 13:00:00 12,9 7,4 - - 26 14 - - W 0,0
26.10.2020 12:00:00 11,8 8,1 - - 16 9 - - WSW 0,0
26.10.2020 11:00:00 10,0 8,6 - - 15 8 - - SW 0,0
26.10.2020 10:00:00 8,5 7,6 - - 15 8 - - SW 0,6
26.10.2020 09:00:00 8,3 6,6 10,0 12,0 15 8 - - SSW 0,0
26.10.2020 08:00:00 7,6 6,2 - - 15 8 - - SSW 0,0
26.10.2020 07:00:00 7,1 5,7 - - 15 8 - - S 0,0
26.10.2020 06:00:00 6,8 5,4 - - 11 6 - - SSW 0,0
26.10.2020 05:00:00 6,7 5,4 - - 11 6 - - S 0,0
26.10.2020 04:00:00 7,0 5,5 - - 13 7 - - SSW 0,0
26.10.2020 03:00:00 6,9 5,5 - - 13 7 - - S 0,0
26.10.2020 02:00:00 7,3 5,5 - - 15 8 - - S 0,0
26.10.2020 01:00:00 7,3 5,6 - - 13 7 - - S 0,0
26.10.2020 00:00:00 7,4 5,6 - - 13 7 - - S 0,0
25.10.2020 23:00:00 7,8 5,9 - - 13 7 - - S 0,0
25.10.2020 22:00:00 8,0 6,1 - - 13 7 - - S 0,0
25.10.2020 21:00:00 8,4 5,9 - - 11 6 - - SSW 0,0
25.10.2020 20:00:00 8,0 5,7 - - 11 6 - - S 0,0
25.10.2020 19:00:00 8,0 5,6 - - 11 6 - - S 0,0
25.10.2020 18:00:00 8,7 5,5 - - 9 5 - - S 0,0
25.10.2020 17:00:00 9,6 5,2 - - 11 6 - - SSW 0,0
25.10.2020 16:00:00 10,5 5,1 - - 15 8 - - SSW 0,0
25.10.2020 15:00:00 11,3 5,9 - - 11 6 - - SSW 0,0
25.10.2020 14:00:00 11,9 6,1 - - 15 8 - - SSW 0,0
25.10.2020 13:00:00 11,8 6,2 - - 15 8 - - SSW 0,0
25.10.2020 12:00:00 12,5 6,6 - - 21 11 - - SSW 0,0
25.10.2020 11:00:00 11,2 6,6 - - 18 10 - - SSW 0,0
25.10.2020 10:00:00 9,7 6,3 - - 16 9 - - S 0,0
25.10.2020 09:00:00 9,6 5,6 10,7 12,2 18 10 - - SSW 0,0
25.10.2020 08:00:00 8,6 5,8 - - 16 9 - - SSW 0,0
25.10.2020 07:00:00 8,0 5,7 - - 16 9 - - S 0,0
25.10.2020 06:00:00 8,1 5,9 - - 13 7 - - S 0,0
25.10.2020 05:00:00 7,7 6,1 - - 11 6 - - S 0,0
25.10.2020 04:00:00 8,0 6,1 - - 11 6 - - S 0,0
25.10.2020 03:00:00 7,8 5,7 - - 11 6 - - S 0,0
25.10.2020 02:00:00 8,2 5,5 - - 9 5 - - SSW 0,0
25.10.2020 01:00:00 8,8 6,5 - - 8 4 - - SSW 0,0
25.10.2020 00:00:00 - - - - - - - - - -
24.10.2020 23:00:00 9,9 8,0 - - 8 4 - - WSW 0,0
24.10.2020 22:00:00 9,9 8,4 - - 8 4 - - SW 0,0
24.10.2020 21:00:00 10,9 9,6 - - 11 6 - - W 0,2
24.10.2020 20:00:00 11,1 10,1 - - 15 8 - - SW 4,8
24.10.2020 19:00:00 12,6 10,7 - - 16 9 - - SSW 0,4
24.10.2020 18:00:00 13,4 10,5 - - 18 10 - - SSW 0,0
24.10.2020 17:00:00 13,1 10,7 - - 16 9 - - SSW 0,2
24.10.2020 16:00:00 12,3 11,3 - - 18 10 - - SW 3,8
24.10.2020 15:00:00 12,6 11,8 - - 11 6 - - SSW 3,0
24.10.2020 14:00:00 14,2 12,9 - - 16 9 - - S 0,2
24.10.2020 13:00:00 13,7 12,7 - - 21 11 - - S 0,0
24.10.2020 12:00:00 13,6 11,9 - - 22 12 48 26 S 0,0
24.10.2020 11:00:00 13,6 10,9 - - 26 14 46 25 S 0,0
24.10.2020 10:00:00 12,8 10,1 - - 22 12 52 28 S 0,0
24.10.2020 09:00:00 11,6 9,1 10,7 12,5 16 9 - - S 0,0
24.10.2020 08:00:00 10,8 7,9 - - 18 10 - - S 0,0
24.10.2020 07:00:00 9,6 6,9 - - 11 6 - - S 0,0
24.10.2020 06:00:00 9,0 6,4 - - 16 9 - - S 0,0
24.10.2020 05:00:00 8,6 5,8 - - 13 7 - - S 0,0
24.10.2020 04:00:00 8,1 5,0 - - 15 8 - - S 0,0
24.10.2020 03:00:00 8,0 4,9 - - 13 7 - - S 0,0
24.10.2020 02:00:00 8,4 5,3 - - 13 7 - - S 0,0
24.10.2020 01:00:00 8,2 5,1 - - 13 7 - - SSW 0,0
24.10.2020 00:00:00 7,9 4,4 - - 9 5 - - S 0,0
23.10.2020 23:00:00 7,7 4,3 - - 8 4 - - SSW 0,0
23.10.2020 22:00:00 7,7 4,5 - - 9 5 - - SW 0,0
23.10.2020 21:00:00 7,7 4,9 - - 8 4 - - SSW 0,0
23.10.2020 20:00:00 7,8 4,9 - - 5 3 - - SSW 0,0
23.10.2020 19:00:00 8,4 4,8 - - 5 3 - - SSW 0,0
23.10.2020 18:00:00 9,9 5,5 - - 11 6 - - WSW 0,0
23.10.2020 17:00:00 10,9 6,2 - - 11 6 - - W 0,0
23.10.2020 16:00:00 11,7 8,0 - - 11 6 - - WSW 0,0
23.10.2020 15:00:00 12,3 9,2 - - 18 10 - - WSW 0,6
23.10.2020 14:00:00 12,7 10,0 - - 11 6 - - SW 0,0
23.10.2020 13:00:00 12,9 10,2 - - 11 6 - - SSW 0,2
23.10.2020 12:00:00 11,7 10,4 - - 9 5 - - SSW 0,4
23.10.2020 11:00:00 11,0 9,9 - - 8 4 - - SW 0,0
23.10.2020 10:00:00 11,0 9,7 - - 8 4 - - SW 0,0
23.10.2020 09:00:00 10,8 10,0 11,4 12,7 9 5 - - SW 0,0
23.10.2020 08:00:00 9,0 8,9 - - 2 1 - - SSW 0,2
23.10.2020 07:00:00 8,5 8,3 - - 8 4 - - SSE 0,4
23.10.2020 06:00:00 8,3 8,1 - - 5 3 - - SSE 0,0
23.10.2020 05:00:00 8,1 7,8 - - 8 4 - - SSE 0,0
23.10.2020 04:00:00 8,5 6,8 - - 9 5 - - SSE 0,0
23.10.2020 03:00:00 8,1 6,4 - - 5 3 - - SSE 0,0
23.10.2020 02:00:00 7,8 5,6 - - 5 3 - - S 0,0
23.10.2020 01:00:00 7,4 4,7 - - 8 4 - - S 0,0
23.10.2020 00:00:00 6,4 3,9 - - 5 3 - - S 0,0
22.10.2020 23:00:00 7,3 3,7 - - 4 2 - - SSW 0,0
22.10.2020 22:00:00 7,7 4,0 - - 5 3 - - SSW 0,0
22.10.2020 21:00:00 8,8 4,4 - - 5 3 - - WSW 0,0
22.10.2020 20:00:00 9,2 4,7 - - 8 4 - - WSW 0,0
22.10.2020 19:00:00 9,3 5,3 - - 4 2 - - SW 0,0
22.10.2020 18:00:00 10,0 5,5 - - 8 4 - - WSW 0,0
22.10.2020 17:00:00 10,7 6,2 - - 9 5 - - W 0,0
22.10.2020 16:00:00 12,4 5,7 - - 15 8 - - W 0,0
22.10.2020 15:00:00 13,0 5,6 - - 15 8 - - WSW 0,0
22.10.2020 14:00:00 12,9 5,7 - - 18 10 - - WSW 0,0
22.10.2020 13:00:00 12,7 6,9 - - 18 10 - - WSW 0,0
22.10.2020 12:00:00 12,0 6,2 - - 18 10 - - WSW 0,0
22.10.2020 11:00:00 12,2 7,7 - - 21 11 - - SW 0,0
22.10.2020 10:00:00 11,3 7,6 - - 18 10 - - SW 0,0
22.10.2020 09:00:00 10,3 7,5 12,2 12,5 15 8 - - SW 0,0
22.10.2020 08:00:00 9,8 8,0 - - 11 6 - - SW 0,0
22.10.2020 07:00:00 9,7 8,1 - - 9 5 - - SW 0,0
22.10.2020 06:00:00 10,8 9,0 - - 13 7 - - WSW 0,0
22.10.2020 05:00:00 11,3 9,7 - - 13 7 - - SW 0,0
22.10.2020 04:00:00 11,5 10,4 - - 11 6 - - SW 0,0
22.10.2020 03:00:00 11,4 10,5 - - 11 6 - - SW 0,0
22.10.2020 02:00:00 11,2 10,4 - - 9 5 - - SW 0,0
22.10.2020 01:00:00 11,4 10,6 - - 13 7 - - SW 0,2
22.10.2020 00:00:00 11,6 11,2 - - 9 5 - - SW 1,6
21.10.2020 23:00:00 11,6 11,2 - - 8 4 - - S 1,4
21.10.2020 22:00:00 11,8 11,1 - - 9 5 - - W 0,8
21.10.2020 21:00:00 12,4 12,0 - - 5 3 - - SW 0,8
21.10.2020 20:00:00 13,1 12,1 - - 9 5 - - SW 1,2
21.10.2020 19:00:00 13,6 12,1 - - 9 5 - - SW 0,0
21.10.2020 18:00:00 14,1 12,9 - - 13 7 - - SSW 0,2
21.10.2020 17:00:00 14,2 12,9 - - 13 7 - - SW 0,0

tt = Température de l'air
td = dewpoint
tt -20cm = Température de l'air -20cm
tt -100cm = Température de l'air -100cm
ff = Vitesse du vent
fx = gusts
dd = Direction du vent
rr = Quantités de précipitations

stations d'obs. à proximité